sensor_id;sensor_type;location;lat;lon;timestamp;P1;durP1;ratioP1;P2;durP2;ratioP2
6209;SDS011;3138;52.550;13.148;2023-07-29T00:01:58;13.43;;;7.00;;
6209;SDS011;3138;52.550;13.148;2023-07-29T00:04:24;12.53;;;6.90;;
6209;SDS011;3138;52.550;13.148;2023-07-29T00:06:51;16.33;;;6.80;;
6209;SDS011;3138;52.550;13.148;2023-07-29T00:09:18;7.60;;;6.40;;
6209;SDS011;3138;52.550;13.148;2023-07-29T00:11:45;10.27;;;6.13;;
6209;SDS011;3138;52.550;13.148;2023-07-29T00:14:13;8.33;;;7.40;;
6209;SDS011;3138;52.550;13.148;2023-07-29T00:16:40;8.67;;;7.77;;
6209;SDS011;3138;52.550;13.148;2023-07-29T00:19:07;7.90;;;7.10;;
6209;SDS011;3138;52.550;13.148;2023-07-29T00:21:34;10.17;;;7.10;;
6209;SDS011;3138;52.550;13.148;2023-07-29T00:24:01;8.27;;;7.47;;
6209;SDS011;3138;52.550;13.148;2023-07-29T00:26:28;12.70;;;8.80;;
6209;SDS011;3138;52.550;13.148;2023-07-29T00:28:55;9.90;;;8.07;;
6209;SDS011;3138;52.550;13.148;2023-07-29T00:31:23;7.60;;;6.90;;
6209;SDS011;3138;52.550;13.148;2023-07-29T00:33:50;8.07;;;7.10;;
6209;SDS011;3138;52.550;13.148;2023-07-29T00:36:17;8.03;;;6.20;;
6209;SDS011;3138;52.550;13.148;2023-07-29T00:38:44;10.50;;;6.27;;
6209;SDS011;3138;52.550;13.148;2023-07-29T00:41:11;30.47;;;8.33;;
6209;SDS011;3138;52.550;13.148;2023-07-29T00:43:39;8.83;;;6.80;;
6209;SDS011;3138;52.550;13.148;2023-07-29T00:46:07;11.73;;;6.60;;
6209;SDS011;3138;52.550;13.148;2023-07-29T00:48:37;11.07;;;6.07;;
6209;SDS011;3138;52.550;13.148;2023-07-29T00:51:04;11.83;;;7.43;;
6209;SDS011;3138;52.550;13.148;2023-07-29T00:53:31;9.47;;;6.73;;
6209;SDS011;3138;52.550;13.148;2023-07-29T00:55:58;6.73;;;6.23;;
6209;SDS011;3138;52.550;13.148;2023-07-29T00:58:25;12.60;;;7.87;;
6209;SDS011;3138;52.550;13.148;2023-07-29T01:00:51;8.57;;;7.70;;
6209;SDS011;3138;52.550;13.148;2023-07-29T01:03:19;11.60;;;8.43;;
6209;SDS011;3138;52.550;13.148;2023-07-29T01:05:50;20.60;;;7.50;;
6209;SDS011;3138;52.550;13.148;2023-07-29T01:08:29;10.00;;;7.30;;
6209;SDS011;3138;52.550;13.148;2023-07-29T01:11:08;11.27;;;6.77;;
6209;SDS011;3138;52.550;13.148;2023-07-29T01:13:44;9.33;;;8.53;;
6209;SDS011;3138;52.550;13.148;2023-07-29T01:16:19;9.07;;;7.40;;
6209;SDS011;3138;52.550;13.148;2023-07-29T01:18:52;11.80;;;6.43;;
6209;SDS011;3138;52.550;13.148;2023-07-29T01:21:22;9.60;;;7.00;;
6209;SDS011;3138;52.550;13.148;2023-07-29T01:23:56;9.33;;;7.00;;
6209;SDS011;3138;52.550;13.148;2023-07-29T01:26:24;12.90;;;7.97;;
6209;SDS011;3138;52.550;13.148;2023-07-29T01:28:53;9.03;;;8.13;;
6209;SDS011;3138;52.550;13.148;2023-07-29T01:31:23;7.00;;;6.40;;
6209;SDS011;3138;52.550;13.148;2023-07-29T01:33:58;8.60;;;7.00;;
6209;SDS011;3138;52.550;13.148;2023-07-29T01:36:29;13.53;;;7.37;;
6209;SDS011;3138;52.550;13.148;2023-07-29T01:39:00;21.50;;;8.10;;
6209;SDS011;3138;52.550;13.148;2023-07-29T01:41:28;9.23;;;7.27;;
6209;SDS011;3138;52.550;13.148;2023-07-29T01:43:56;9.77;;;8.67;;
6209;SDS011;3138;52.550;13.148;2023-07-29T01:46:23;9.60;;;7.93;;
6209;SDS011;3138;52.550;13.148;2023-07-29T01:48:51;12.63;;;7.80;;
6209;SDS011;3138;52.550;13.148;2023-07-29T01:51:18;8.13;;;7.33;;
6209;SDS011;3138;52.550;13.148;2023-07-29T01:53:45;8.27;;;7.47;;
6209;SDS011;3138;52.550;13.148;2023-07-29T01:56:16;8.30;;;7.50;;
6209;SDS011;3138;52.550;13.148;2023-07-29T01:58:44;18.70;;;7.80;;
6209;SDS011;3138;52.550;13.148;2023-07-29T02:01:11;15.13;;;6.53;;
6209;SDS011;3138;52.550;13.148;2023-07-29T02:03:38;12.63;;;7.67;;
6209;SDS011;3138;52.550;13.148;2023-07-29T02:06:05;9.20;;;8.33;;
6209;SDS011;3138;52.550;13.148;2023-07-29T02:08:32;9.00;;;7.67;;
6209;SDS011;3138;52.550;13.148;2023-07-29T02:10:59;12.10;;;8.60;;
6209;SDS011;3138;52.550;13.148;2023-07-29T02:13:27;9.07;;;7.70;;
6209;SDS011;3138;52.550;13.148;2023-07-29T02:15:54;12.97;;;8.43;;
6209;SDS011;3138;52.550;13.148;2023-07-29T02:18:20;14.43;;;8.43;;
6209;SDS011;3138;52.550;13.148;2023-07-29T02:20:47;15.73;;;8.83;;
6209;SDS011;3138;52.550;13.148;2023-07-29T02:23:15;12.03;;;10.83;;
6209;SDS011;3138;52.550;13.148;2023-07-29T02:25:42;15.40;;;8.80;;
6209;SDS011;3138;52.550;13.148;2023-07-29T02:28:11;11.03;;;8.50;;
6209;SDS011;3138;52.550;13.148;2023-07-29T02:30:40;10.23;;;9.23;;
6209;SDS011;3138;52.550;13.148;2023-07-29T02:33:09;14.83;;;9.00;;
6209;SDS011;3138;52.550;13.148;2023-07-29T02:35:36;13.83;;;10.07;;
6209;SDS011;3138;52.550;13.148;2023-07-29T02:38:03;10.20;;;8.60;;
6209;SDS011;3138;52.550;13.148;2023-07-29T02:40:30;20.93;;;9.27;;
6209;SDS011;3138;52.550;13.148;2023-07-29T02:42:57;23.33;;;10.83;;
6209;SDS011;3138;52.550;13.148;2023-07-29T02:45:24;26.13;;;10.00;;
6209;SDS011;3138;52.550;13.148;2023-07-29T02:47:52;13.53;;;10.23;;
6209;SDS011;3138;52.550;13.148;2023-07-29T02:50:19;12.13;;;8.90;;
6209;SDS011;3138;52.550;13.148;2023-07-29T02:52:46;16.37;;;7.57;;
6209;SDS011;3138;52.550;13.148;2023-07-29T02:55:13;9.33;;;8.13;;
6209;SDS011;3138;52.550;13.148;2023-07-29T02:57:40;10.80;;;9.27;;
6209;SDS011;3138;52.550;13.148;2023-07-29T03:00:07;11.90;;;8.47;;
6209;SDS011;3138;52.550;13.148;2023-07-29T03:02:36;10.10;;;7.67;;
6209;SDS011;3138;52.550;13.148;2023-07-29T03:05:04;13.50;;;7.50;;
6209;SDS011;3138;52.550;13.148;2023-07-29T03:07:32;13.27;;;7.43;;
6209;SDS011;3138;52.550;13.148;2023-07-29T03:09:59;17.30;;;8.33;;
6209;SDS011;3138;52.550;13.148;2023-07-29T03:12:25;9.30;;;8.13;;
6209;SDS011;3138;52.550;13.148;2023-07-29T03:14:53;7.87;;;6.83;;
6209;SDS011;3138;52.550;13.148;2023-07-29T03:17:21;9.10;;;8.10;;
6209;SDS011;3138;52.550;13.148;2023-07-29T03:19:48;20.73;;;9.20;;
6209;SDS011;3138;52.550;13.148;2023-07-29T03:22:16;9.23;;;8.20;;
6209;SDS011;3138;52.550;13.148;2023-07-29T03:24:43;14.63;;;7.90;;
6209;SDS011;3138;52.550;13.148;2023-07-29T03:27:10;17.00;;;9.10;;
6209;SDS011;3138;52.550;13.148;2023-07-29T03:29:36;21.90;;;9.87;;
6209;SDS011;3138;52.550;13.148;2023-07-29T03:32:04;10.20;;;9.20;;
6209;SDS011;3138;52.550;13.148;2023-07-29T03:34:31;10.73;;;9.67;;
6209;SDS011;3138;52.550;13.148;2023-07-29T03:36:58;9.30;;;8.50;;
6209;SDS011;3138;52.550;13.148;2023-07-29T03:39:27;11.13;;;9.97;;
6209;SDS011;3138;52.550;13.148;2023-07-29T03:41:54;8.77;;;7.87;;
6209;SDS011;3138;52.550;13.148;2023-07-29T03:44:20;15.93;;;10.40;;
6209;SDS011;3138;52.550;13.148;2023-07-29T03:46:47;10.40;;;9.30;;
6209;SDS011;3138;52.550;13.148;2023-07-29T03:49:14;9.87;;;8.97;;
6209;SDS011;3138;52.550;13.148;2023-07-29T03:51:41;9.90;;;9.00;;
6209;SDS011;3138;52.550;13.148;2023-07-29T03:54:08;11.20;;;9.60;;
6209;SDS011;3138;52.550;13.148;2023-07-29T03:56:36;10.17;;;9.20;;
6209;SDS011;3138;52.550;13.148;2023-07-29T03:59:03;15.90;;;9.53;;
6209;SDS011;3138;52.550;13.148;2023-07-29T04:01:30;11.80;;;9.20;;
6209;SDS011;3138;52.550;13.148;2023-07-29T04:03:57;10.70;;;9.33;;
6209;SDS011;3138;52.550;13.148;2023-07-29T04:06:25;11.37;;;8.87;;
6209;SDS011;3138;52.550;13.148;2023-07-29T04:08:52;14.77;;;12.07;;
6209;SDS011;3138;52.550;13.148;2023-07-29T04:11:19;15.10;;;8.97;;
6209;SDS011;3138;52.550;13.148;2023-07-29T04:13:47;24.87;;;9.07;;
6209;SDS011;3138;52.550;13.148;2023-07-29T04:16:14;9.40;;;8.40;;
6209;SDS011;3138;52.550;13.148;2023-07-29T04:18:41;18.03;;;8.10;;
6209;SDS011;3138;52.550;13.148;2023-07-29T04:21:08;10.70;;;9.20;;
6209;SDS011;3138;52.550;13.148;2023-07-29T04:23:35;14.07;;;9.77;;
6209;SDS011;3138;52.550;13.148;2023-07-29T04:26:02;12.17;;;10.57;;
6209;SDS011;3138;52.550;13.148;2023-07-29T04:28:31;13.37;;;11.97;;
6209;SDS011;3138;52.550;13.148;2023-07-29T04:30:59;14.80;;;10.80;;
6209;SDS011;3138;52.550;13.148;2023-07-29T04:33:26;10.30;;;9.40;;
6209;SDS011;3138;52.550;13.148;2023-07-29T04:35:52;13.33;;;11.27;;
6209;SDS011;3138;52.550;13.148;2023-07-29T04:38:19;25.37;;;12.30;;
6209;SDS011;3138;52.550;13.148;2023-07-29T04:40:48;12.37;;;11.17;;
6209;SDS011;3138;52.550;13.148;2023-07-29T04:43:15;12.10;;;10.20;;
6209;SDS011;3138;52.550;13.148;2023-07-29T04:45:42;11.50;;;9.77;;
6209;SDS011;3138;52.550;13.148;2023-07-29T04:48:10;11.00;;;9.97;;
6209;SDS011;3138;52.550;13.148;2023-07-29T04:50:37;10.87;;;9.83;;
6209;SDS011;3138;52.550;13.148;2023-07-29T04:53:04;14.77;;;11.07;;
6209;SDS011;3138;52.550;13.148;2023-07-29T04:55:31;12.80;;;11.47;;
6209;SDS011;3138;52.550;13.148;2023-07-29T04:57:58;12.43;;;11.13;;
6209;SDS011;3138;52.550;13.148;2023-07-29T05:00:25;13.43;;;11.40;;
6209;SDS011;3138;52.550;13.148;2023-07-29T05:02:52;16.00;;;9.87;;
6209;SDS011;3138;52.550;13.148;2023-07-29T05:05:20;10.57;;;9.67;;
6209;SDS011;3138;52.550;13.148;2023-07-29T05:07:47;10.90;;;9.80;;
6209;SDS011;3138;52.550;13.148;2023-07-29T05:10:14;17.60;;;10.97;;
6209;SDS011;3138;52.550;13.148;2023-07-29T05:12:41;18.73;;;10.70;;
6209;SDS011;3138;52.550;13.148;2023-07-29T05:15:08;13.40;;;11.37;;
6209;SDS011;3138;52.550;13.148;2023-07-29T05:17:36;11.03;;;9.97;;
6209;SDS011;3138;52.550;13.148;2023-07-29T05:20:03;13.30;;;11.53;;
6209;SDS011;3138;52.550;13.148;2023-07-29T05:22:32;14.27;;;10.30;;
6209;SDS011;3138;52.550;13.148;2023-07-29T05:24:59;20.93;;;10.03;;
6209;SDS011;3138;52.550;13.148;2023-07-29T05:27:26;12.60;;;9.20;;
6209;SDS011;3138;52.550;13.148;2023-07-29T05:29:52;12.07;;;10.97;;
6209;SDS011;3138;52.550;13.148;2023-07-29T05:32:19;16.47;;;11.03;;
6209;SDS011;3138;52.550;13.148;2023-07-29T05:34:46;11.63;;;10.50;;
6209;SDS011;3138;52.550;13.148;2023-07-29T05:37:13;12.60;;;9.57;;
6209;SDS011;3138;52.550;13.148;2023-07-29T05:39:41;11.83;;;9.60;;
6209;SDS011;3138;52.550;13.148;2023-07-29T05:42:08;14.73;;;10.07;;
6209;SDS011;3138;52.550;13.148;2023-07-29T05:44:35;11.47;;;10.37;;
6209;SDS011;3138;52.550;13.148;2023-07-29T05:47:02;14.03;;;9.93;;
6209;SDS011;3138;52.550;13.148;2023-07-29T05:49:29;14.50;;;8.77;;
6209;SDS011;3138;52.550;13.148;2023-07-29T05:51:55;11.50;;;8.90;;
6209;SDS011;3138;52.550;13.148;2023-07-29T05:54:22;11.90;;;8.73;;
6209;SDS011;3138;52.550;13.148;2023-07-29T05:56:50;15.13;;;8.50;;
6209;SDS011;3138;52.550;13.148;2023-07-29T05:59:17;13.27;;;8.57;;
6209;SDS011;3138;52.550;13.148;2023-07-29T06:01:44;8.87;;;8.00;;
6209;SDS011;3138;52.550;13.148;2023-07-29T06:04:10;10.30;;;7.30;;
6209;SDS011;3138;52.550;13.148;2023-07-29T06:06:36;10.03;;;7.13;;
6209;SDS011;3138;52.550;13.148;2023-07-29T06:09:03;7.90;;;7.20;;
6209;SDS011;3138;52.550;13.148;2023-07-29T06:11:30;9.90;;;8.00;;
6209;SDS011;3138;52.550;13.148;2023-07-29T06:13:58;7.93;;;7.23;;
6209;SDS011;3138;52.550;13.148;2023-07-29T06:16:25;8.70;;;7.83;;
6209;SDS011;3138;52.550;13.148;2023-07-29T06:18:52;7.00;;;6.17;;
6209;SDS011;3138;52.550;13.148;2023-07-29T06:21:19;13.63;;;7.27;;
6209;SDS011;3138;52.550;13.148;2023-07-29T06:23:46;10.23;;;6.40;;
6209;SDS011;3138;52.550;13.148;2023-07-29T06:26:12;9.37;;;7.90;;
6209;SDS011;3138;52.550;13.148;2023-07-29T06:28:39;8.90;;;5.67;;
6209;SDS011;3138;52.550;13.148;2023-07-29T06:31:07;11.27;;;6.00;;
6209;SDS011;3138;52.550;13.148;2023-07-29T06:33:34;7.40;;;6.70;;
6209;SDS011;3138;52.550;13.148;2023-07-29T06:36:01;6.27;;;5.67;;
6209;SDS011;3138;52.550;13.148;2023-07-29T06:38:28;6.67;;;5.87;;
6209;SDS011;3138;52.550;13.148;2023-07-29T06:40:55;11.47;;;6.70;;
6209;SDS011;3138;52.550;13.148;2023-07-29T06:43:22;5.77;;;5.33;;
6209;SDS011;3138;52.550;13.148;2023-07-29T06:45:49;9.20;;;5.63;;
6209;SDS011;3138;52.550;13.148;2023-07-29T06:48:18;5.33;;;4.83;;
6209;SDS011;3138;52.550;13.148;2023-07-29T06:50:45;9.97;;;5.40;;
6209;SDS011;3138;52.550;13.148;2023-07-29T06:53:12;7.70;;;6.90;;
6209;SDS011;3138;52.550;13.148;2023-07-29T06:55:38;6.03;;;5.53;;
6209;SDS011;3138;52.550;13.148;2023-07-29T06:58:05;6.10;;;5.27;;
6209;SDS011;3138;52.550;13.148;2023-07-29T07:00:32;5.63;;;5.17;;
6209;SDS011;3138;52.550;13.148;2023-07-29T07:02:59;9.80;;;5.73;;
6209;SDS011;3138;52.550;13.148;2023-07-29T07:05:27;8.63;;;5.50;;
6209;SDS011;3138;52.550;13.148;2023-07-29T07:07:54;15.20;;;5.40;;
6209;SDS011;3138;52.550;13.148;2023-07-29T07:10:21;4.87;;;4.50;;
6209;SDS011;3138;52.550;13.148;2023-07-29T07:12:48;5.67;;;5.17;;
6209;SDS011;3138;52.550;13.148;2023-07-29T07:15:14;7.70;;;6.23;;
6209;SDS011;3138;52.550;13.148;2023-07-29T07:17:41;5.30;;;4.80;;
6209;SDS011;3138;52.550;13.148;2023-07-29T07:20:08;5.80;;;5.30;;
6209;SDS011;3138;52.550;13.148;2023-07-29T07:22:37;5.90;;;5.07;;
6209;SDS011;3138;52.550;13.148;2023-07-29T07:25:05;5.83;;;4.77;;
6209;SDS011;3138;52.550;13.148;2023-07-29T07:27:33;8.63;;;5.03;;
6209;SDS011;3138;52.550;13.148;2023-07-29T07:29:59;4.70;;;4.30;;
6209;SDS011;3138;52.550;13.148;2023-07-29T07:32:26;5.40;;;5.00;;
6209;SDS011;3138;52.550;13.148;2023-07-29T07:34:53;5.20;;;4.70;;
6209;SDS011;3138;52.550;13.148;2023-07-29T07:37:20;11.53;;;4.83;;
6209;SDS011;3138;52.550;13.148;2023-07-29T07:39:48;4.70;;;4.40;;
6209;SDS011;3138;52.550;13.148;2023-07-29T07:42:15;4.87;;;4.47;;
6209;SDS011;3138;52.550;13.148;2023-07-29T07:44:42;5.07;;;4.67;;
6209;SDS011;3138;52.550;13.148;2023-07-29T07:47:09;6.33;;;4.57;;
6209;SDS011;3138;52.550;13.148;2023-07-29T07:49:35;5.37;;;4.97;;
6209;SDS011;3138;52.550;13.148;2023-07-29T07:52:02;9.53;;;4.47;;
6209;SDS011;3138;52.550;13.148;2023-07-29T07:54:29;5.03;;;4.63;;
6209;SDS011;3138;52.550;13.148;2023-07-29T07:56:58;5.23;;;3.97;;
6209;SDS011;3138;52.550;13.148;2023-07-29T07:59:24;5.90;;;3.90;;
6209;SDS011;3138;52.550;13.148;2023-07-29T08:01:51;5.30;;;3.70;;
6209;SDS011;3138;52.550;13.148;2023-07-29T08:04:18;3.73;;;3.43;;
6209;SDS011;3138;52.550;13.148;2023-07-29T08:06:45;3.57;;;3.27;;
6209;SDS011;3138;52.550;13.148;2023-07-29T08:09:12;3.50;;;3.20;;
6209;SDS011;3138;52.550;13.148;2023-07-29T08:11:38;5.67;;;4.07;;
6209;SDS011;3138;52.550;13.148;2023-07-29T08:14:06;3.83;;;3.53;;
6209;SDS011;3138;52.550;13.148;2023-07-29T08:16:33;9.33;;;4.00;;
6209;SDS011;3138;52.550;13.148;2023-07-29T08:19:00;7.33;;;3.90;;
6209;SDS011;3138;52.550;13.148;2023-07-29T08:21:27;9.53;;;3.30;;
6209;SDS011;3138;52.550;13.148;2023-07-29T08:23:54;4.23;;;3.00;;
6209;SDS011;3138;52.550;13.148;2023-07-29T08:26:21;3.43;;;3.13;;
6209;SDS011;3138;52.550;13.148;2023-07-29T08:28:48;3.30;;;3.00;;
6209;SDS011;3138;52.550;13.148;2023-07-29T08:31:17;3.23;;;3.03;;
6209;SDS011;3138;52.550;13.148;2023-07-29T08:33:43;4.47;;;3.73;;
6209;SDS011;3138;52.550;13.148;2023-07-29T08:36:10;6.30;;;3.27;;
6209;SDS011;3138;52.550;13.148;2023-07-29T08:38:37;3.60;;;3.30;;
6209;SDS011;3138;52.550;13.148;2023-07-29T08:41:06;3.30;;;3.00;;
6209;SDS011;3138;52.550;13.148;2023-07-29T08:43:41;9.07;;;3.20;;
6209;SDS011;3138;52.550;13.148;2023-07-29T08:46:16;3.33;;;3.03;;
6209;SDS011;3138;52.550;13.148;2023-07-29T08:48:45;3.07;;;2.87;;
6209;SDS011;3138;52.550;13.148;2023-07-29T08:51:12;3.37;;;3.07;;
6209;SDS011;3138;52.550;13.148;2023-07-29T08:53:40;3.17;;;2.97;;
6209;SDS011;3138;52.550;13.148;2023-07-29T08:56:08;2.83;;;2.73;;
6209;SDS011;3138;52.550;13.148;2023-07-29T08:58:35;3.17;;;2.93;;
6209;SDS011;3138;52.550;13.148;2023-07-29T09:01:02;2.60;;;2.40;;
6209;SDS011;3138;52.550;13.148;2023-07-29T09:03:30;6.23;;;3.50;;
6209;SDS011;3138;52.550;13.148;2023-07-29T09:05:58;6.00;;;3.27;;
6209;SDS011;3138;52.550;13.148;2023-07-29T09:08:25;2.80;;;2.70;;
6209;SDS011;3138;52.550;13.148;2023-07-29T09:10:53;3.10;;;2.80;;
6209;SDS011;3138;52.550;13.148;2023-07-29T09:13:23;9.60;;;3.63;;
6209;SDS011;3138;52.550;13.148;2023-07-29T09:15:53;4.00;;;3.50;;
6209;SDS011;3138;52.550;13.148;2023-07-29T09:18:20;3.50;;;3.30;;
6209;SDS011;3138;52.550;13.148;2023-07-29T09:20:49;3.67;;;2.53;;
6209;SDS011;3138;52.550;13.148;2023-07-29T09:23:16;2.60;;;2.30;;
6209;SDS011;3138;52.550;13.148;2023-07-29T09:25:43;3.23;;;2.90;;
6209;SDS011;3138;52.550;13.148;2023-07-29T09:28:13;3.50;;;2.87;;
6209;SDS011;3138;52.550;13.148;2023-07-29T09:30:45;3.03;;;2.87;;
6209;SDS011;3138;52.550;13.148;2023-07-29T09:33:12;4.40;;;2.90;;
6209;SDS011;3138;52.550;13.148;2023-07-29T09:35:39;3.00;;;2.80;;
6209;SDS011;3138;52.550;13.148;2023-07-29T09:38:07;2.77;;;2.60;;
6209;SDS011;3138;52.550;13.148;2023-07-29T09:40:34;2.40;;;2.30;;
6209;SDS011;3138;52.550;13.148;2023-07-29T09:43:03;2.70;;;2.60;;
6209;SDS011;3138;52.550;13.148;2023-07-29T09:45:32;4.20;;;2.80;;
6209;SDS011;3138;52.550;13.148;2023-07-29T09:48:00;2.70;;;2.60;;
6209;SDS011;3138;52.550;13.148;2023-07-29T09:50:30;8.40;;;3.50;;
6209;SDS011;3138;52.550;13.148;2023-07-29T09:52:57;4.77;;;2.73;;
6209;SDS011;3138;52.550;13.148;2023-07-29T09:55:26;3.00;;;2.80;;
6209;SDS011;3138;52.550;13.148;2023-07-29T09:57:53;3.67;;;2.27;;
6209;SDS011;3138;52.550;13.148;2023-07-29T10:00:22;2.30;;;2.20;;
6209;SDS011;3138;52.550;13.148;2023-07-29T10:02:49;2.83;;;2.63;;
6209;SDS011;3138;52.550;13.148;2023-07-29T10:05:18;10.23;;;2.70;;
6209;SDS011;3138;52.550;13.148;2023-07-29T10:07:47;17.17;;;3.47;;
6209;SDS011;3138;52.550;13.148;2023-07-29T10:10:15;5.10;;;2.60;;
6209;SDS011;3138;52.550;13.148;2023-07-29T10:12:44;4.30;;;2.20;;
6209;SDS011;3138;52.550;13.148;2023-07-29T10:15:12;3.10;;;2.40;;
6209;SDS011;3138;52.550;13.148;2023-07-29T10:17:39;14.73;;;5.30;;
6209;SDS011;3138;52.550;13.148;2023-07-29T10:20:07;7.90;;;3.13;;
6209;SDS011;3138;52.550;13.148;2023-07-29T10:22:36;16.43;;;3.80;;
6209;SDS011;3138;52.550;13.148;2023-07-29T10:25:04;9.30;;;3.90;;
6209;SDS011;3138;52.550;13.148;2023-07-29T10:27:35;4.33;;;2.70;;
6209;SDS011;3138;52.550;13.148;2023-07-29T10:30:10;7.00;;;4.43;;
6209;SDS011;3138;52.550;13.148;2023-07-29T10:32:38;4.67;;;4.07;;
6209;SDS011;3138;52.550;13.148;2023-07-29T10:35:07;11.27;;;4.13;;
6209;SDS011;3138;52.550;13.148;2023-07-29T10:37:34;5.93;;;4.20;;
6209;SDS011;3138;52.550;13.148;2023-07-29T10:40:05;8.23;;;3.80;;
6209;SDS011;3138;52.550;13.148;2023-07-29T10:42:33;4.90;;;4.50;;
6209;SDS011;3138;52.550;13.148;2023-07-29T10:45:00;4.70;;;4.20;;
6209;SDS011;3138;52.550;13.148;2023-07-29T10:47:44;6.20;;;4.90;;
6209;SDS011;3138;52.550;13.148;2023-07-29T10:50:16;5.10;;;4.40;;
6209;SDS011;3138;52.550;13.148;2023-07-29T10:52:46;5.83;;;3.40;;
6209;SDS011;3138;52.550;13.148;2023-07-29T10:55:25;3.93;;;3.53;;
6209;SDS011;3138;52.550;13.148;2023-07-29T10:58:04;8.97;;;5.50;;
6209;SDS011;3138;52.550;13.148;2023-07-29T11:00:37;14.00;;;6.33;;
6209;SDS011;3138;52.550;13.148;2023-07-29T11:03:06;8.87;;;4.77;;
6209;SDS011;3138;52.550;13.148;2023-07-29T11:05:43;10.17;;;4.90;;
6209;SDS011;3138;52.550;13.148;2023-07-29T11:10:58;4.50;;;3.77;;
6209;SDS011;3138;52.550;13.148;2023-07-29T11:13:27;4.60;;;3.30;;
6209;SDS011;3138;52.550;13.148;2023-07-29T11:15:54;4.20;;;3.87;;
6209;SDS011;3138;52.550;13.148;2023-07-29T11:18:25;3.80;;;3.50;;
6209;SDS011;3138;52.550;13.148;2023-07-29T11:20:53;7.17;;;4.10;;
6209;SDS011;3138;52.550;13.148;2023-07-29T11:23:21;5.00;;;3.67;;
6209;SDS011;3138;52.550;13.148;2023-07-29T11:25:54;4.60;;;4.30;;
6209;SDS011;3138;52.550;13.148;2023-07-29T11:28:21;4.60;;;4.20;;
6209;SDS011;3138;52.550;13.148;2023-07-29T11:30:49;4.43;;;4.03;;
6209;SDS011;3138;52.550;13.148;2023-07-29T11:33:17;5.90;;;4.23;;
6209;SDS011;3138;52.550;13.148;2023-07-29T11:35:47;6.70;;;4.60;;
6209;SDS011;3138;52.550;13.148;2023-07-29T11:38:17;4.50;;;4.10;;
6209;SDS011;3138;52.550;13.148;2023-07-29T11:40:53;5.50;;;3.83;;
6209;SDS011;3138;52.550;13.148;2023-07-29T11:43:25;9.33;;;4.90;;
6209;SDS011;3138;52.550;13.148;2023-07-29T11:45:52;10.93;;;5.10;;
6209;SDS011;3138;52.550;13.148;2023-07-29T11:48:26;7.33;;;5.40;;
6209;SDS011;3138;52.550;13.148;2023-07-29T11:50:54;7.40;;;4.87;;
6209;SDS011;3138;52.550;13.148;2023-07-29T11:53:21;6.33;;;4.97;;
6209;SDS011;3138;52.550;13.148;2023-07-29T11:55:49;6.03;;;4.20;;
6209;SDS011;3138;52.550;13.148;2023-07-29T11:58:18;4.80;;;4.40;;
6209;SDS011;3138;52.550;13.148;2023-07-29T12:00:44;8.03;;;5.27;;
6209;SDS011;3138;52.550;13.148;2023-07-29T12:03:12;4.80;;;4.37;;
6209;SDS011;3138;52.550;13.148;2023-07-29T12:05:41;6.57;;;4.17;;
6209;SDS011;3138;52.550;13.148;2023-07-29T12:08:09;5.80;;;4.73;;
6209;SDS011;3138;52.550;13.148;2023-07-29T12:10:37;4.97;;;4.60;;
6209;SDS011;3138;52.550;13.148;2023-07-29T12:13:04;5.13;;;4.07;;
6209;SDS011;3138;52.550;13.148;2023-07-29T12:15:31;7.60;;;4.90;;
6209;SDS011;3138;52.550;13.148;2023-07-29T12:17:58;4.90;;;4.37;;
6209;SDS011;3138;52.550;13.148;2023-07-29T12:20:25;4.37;;;4.07;;
6209;SDS011;3138;52.550;13.148;2023-07-29T12:22:53;6.77;;;4.37;;
6209;SDS011;3138;52.550;13.148;2023-07-29T12:25:23;4.93;;;4.50;;
6209;SDS011;3138;52.550;13.148;2023-07-29T12:27:51;5.00;;;4.53;;
6209;SDS011;3138;52.550;13.148;2023-07-29T12:30:20;4.60;;;4.20;;
6209;SDS011;3138;52.550;13.148;2023-07-29T12:32:47;8.10;;;3.30;;
6209;SDS011;3138;52.550;13.148;2023-07-29T12:35:14;5.43;;;3.50;;
6209;SDS011;3138;52.550;13.148;2023-07-29T12:37:41;6.60;;;3.23;;
6209;SDS011;3138;52.550;13.148;2023-07-29T12:40:09;6.57;;;2.80;;
6209;SDS011;3138;52.550;13.148;2023-07-29T12:42:49;3.37;;;2.90;;
6209;SDS011;3138;52.550;13.148;2023-07-29T12:45:16;3.47;;;3.13;;
6209;SDS011;3138;52.550;13.148;2023-07-29T12:47:43;2.73;;;2.60;;
6209;SDS011;3138;52.550;13.148;2023-07-29T12:50:10;4.10;;;2.80;;
6209;SDS011;3138;52.550;13.148;2023-07-29T12:52:37;2.70;;;2.50;;
6209;SDS011;3138;52.550;13.148;2023-07-29T12:55:05;9.47;;;1.70;;
6209;SDS011;3138;52.550;13.148;2023-07-29T12:57:33;2.53;;;2.13;;
6209;SDS011;3138;52.550;13.148;2023-07-29T13:00:02;3.90;;;2.00;;
6209;SDS011;3138;52.550;13.148;2023-07-29T13:02:30;1.93;;;1.83;;
6209;SDS011;3138;52.550;13.148;2023-07-29T13:04:57;3.00;;;1.90;;
6209;SDS011;3138;52.550;13.148;2023-07-29T13:07:24;1.47;;;1.40;;
6209;SDS011;3138;52.550;13.148;2023-07-29T13:09:51;1.50;;;1.50;;
6209;SDS011;3138;52.550;13.148;2023-07-29T13:12:18;2.50;;;1.90;;
6209;SDS011;3138;52.550;13.148;2023-07-29T13:14:44;1.20;;;1.20;;
6209;SDS011;3138;52.550;13.148;2023-07-29T13:17:13;1.07;;;1.07;;
6209;SDS011;3138;52.550;13.148;2023-07-29T13:19:39;3.03;;;1.33;;
6209;SDS011;3138;52.550;13.148;2023-07-29T13:22:06;3.77;;;0.90;;
6209;SDS011;3138;52.550;13.148;2023-07-29T13:24:33;1.40;;;1.30;;
6209;SDS011;3138;52.550;13.148;2023-07-29T13:27:00;0.90;;;0.90;;
6209;SDS011;3138;52.550;13.148;2023-07-29T13:29:27;1.30;;;1.30;;
6209;SDS011;3138;52.550;13.148;2023-07-29T13:31:54;0.90;;;0.90;;
6209;SDS011;3138;52.550;13.148;2023-07-29T13:34:22;0.90;;;0.90;;
6209;SDS011;3138;52.550;13.148;2023-07-29T13:36:49;3.10;;;0.93;;
6209;SDS011;3138;52.550;13.148;2023-07-29T13:39:15;1.90;;;0.90;;
6209;SDS011;3138;52.550;13.148;2023-07-29T13:41:42;5.10;;;1.00;;
6209;SDS011;3138;52.550;13.148;2023-07-29T13:44:09;1.43;;;1.40;;
6209;SDS011;3138;52.550;13.148;2023-07-29T13:46:36;3.60;;;1.37;;
6209;SDS011;3138;52.550;13.148;2023-07-29T13:49:03;2.73;;;1.17;;
6209;SDS011;3138;52.550;13.148;2023-07-29T13:51:31;1.00;;;1.00;;
6209;SDS011;3138;52.550;13.148;2023-07-29T13:53:58;7.30;;;1.20;;
6209;SDS011;3138;52.550;13.148;2023-07-29T13:56:25;1.63;;;1.20;;
6209;SDS011;3138;52.550;13.148;2023-07-29T13:58:52;1.20;;;1.20;;
6209;SDS011;3138;52.550;13.148;2023-07-29T14:01:18;1.37;;;1.30;;
6209;SDS011;3138;52.550;13.148;2023-07-29T14:03:45;4.53;;;1.00;;
6209;SDS011;3138;52.550;13.148;2023-07-29T14:06:12;0.90;;;0.90;;
6209;SDS011;3138;52.550;13.148;2023-07-29T14:08:40;1.13;;;1.13;;
6209;SDS011;3138;52.550;13.148;2023-07-29T14:11:07;4.13;;;1.30;;
6209;SDS011;3138;52.550;13.148;2023-07-29T14:13:34;2.00;;;1.10;;
6209;SDS011;3138;52.550;13.148;2023-07-29T14:16:01;2.30;;;1.40;;
6209;SDS011;3138;52.550;13.148;2023-07-29T14:18:28;1.23;;;1.23;;
6209;SDS011;3138;52.550;13.148;2023-07-29T14:20:55;1.60;;;1.50;;
6209;SDS011;3138;52.550;13.148;2023-07-29T14:23:22;1.33;;;1.10;;
6209;SDS011;3138;52.550;13.148;2023-07-29T14:25:50;1.73;;;1.63;;
6209;SDS011;3138;52.550;13.148;2023-07-29T14:28:17;3.80;;;1.30;;
6209;SDS011;3138;52.550;13.148;2023-07-29T14:30:43;1.47;;;1.47;;
6209;SDS011;3138;52.550;13.148;2023-07-29T14:33:10;1.70;;;1.60;;
6209;SDS011;3138;52.550;13.148;2023-07-29T14:35:38;1.37;;;1.37;;
6209;SDS011;3138;52.550;13.148;2023-07-29T14:38:05;1.50;;;0.97;;
6209;SDS011;3138;52.550;13.148;2023-07-29T14:40:32;2.87;;;1.10;;
6209;SDS011;3138;52.550;13.148;2023-07-29T14:43:00;2.37;;;2.27;;
6209;SDS011;3138;52.550;13.148;2023-07-29T14:45:27;6.00;;;4.10;;
6209;SDS011;3138;52.550;13.148;2023-07-29T14:47:53;3.70;;;1.37;;
6209;SDS011;3138;52.550;13.148;2023-07-29T14:50:20;1.30;;;1.30;;
6209;SDS011;3138;52.550;13.148;2023-07-29T14:52:47;1.33;;;1.30;;
6209;SDS011;3138;52.550;13.148;2023-07-29T14:55:14;4.07;;;1.30;;
6209;SDS011;3138;52.550;13.148;2023-07-29T14:57:41;1.60;;;1.37;;
6209;SDS011;3138;52.550;13.148;2023-07-29T15:00:10;1.30;;;1.30;;
6209;SDS011;3138;52.550;13.148;2023-07-29T15:02:37;1.33;;;1.23;;